sensor_id;sensor_type;location;lat;lon;timestamp;temperature;humidity
15160;DHT22;7680;48.800;9.680;2023-01-09T00:00:49;6.90;99.90
15160;DHT22;7680;48.800;9.680;2023-01-09T00:03:24;6.90;99.90
15160;DHT22;7680;48.800;9.680;2023-01-09T00:05:57;6.80;99.90
15160;DHT22;7680;48.800;9.680;2023-01-09T00:08:30;6.90;99.90
15160;DHT22;7680;48.800;9.680;2023-01-09T00:11:03;6.80;99.90
15160;DHT22;7680;48.800;9.680;2023-01-09T00:13:37;6.90;99.90
15160;DHT22;7680;48.800;9.680;2023-01-09T00:16:10;6.90;99.90
15160;DHT22;7680;48.800;9.680;2023-01-09T00:18:45;6.80;99.90
15160;DHT22;7680;48.800;9.680;2023-01-09T00:21:18;6.80;99.90
15160;DHT22;7680;48.800;9.680;2023-01-09T00:23:52;6.80;99.90
15160;DHT22;7680;48.800;9.680;2023-01-09T00:26:26;6.80;99.90
15160;DHT22;7680;48.800;9.680;2023-01-09T00:28:59;6.80;99.90
15160;DHT22;7680;48.800;9.680;2023-01-09T00:31:32;6.80;99.90
15160;DHT22;7680;48.800;9.680;2023-01-09T00:34:08;6.80;99.90
15160;DHT22;7680;48.800;9.680;2023-01-09T00:36:41;6.70;99.90
15160;DHT22;7680;48.800;9.680;2023-01-09T00:39:14;6.70;99.90
15160;DHT22;7680;48.800;9.680;2023-01-09T00:41:51;6.70;99.90
15160;DHT22;7680;48.800;9.680;2023-01-09T00:44:29;6.70;99.90
15160;DHT22;7680;48.800;9.680;2023-01-09T00:47:07;6.70;99.90
15160;DHT22;7680;48.800;9.680;2023-01-09T00:49:46;6.70;99.90
15160;DHT22;7680;48.800;9.680;2023-01-09T00:52:19;6.70;99.90
15160;DHT22;7680;48.800;9.680;2023-01-09T00:54:53;6.70;99.90
15160;DHT22;7680;48.800;9.680;2023-01-09T00:57:27;6.80;99.90
15160;DHT22;7680;48.800;9.680;2023-01-09T01:00:00;6.80;99.90
15160;DHT22;7680;48.800;9.680;2023-01-09T01:02:34;6.80;99.90
15160;DHT22;7680;48.800;9.680;2023-01-09T01:05:08;6.90;99.90
15160;DHT22;7680;48.800;9.680;2023-01-09T01:07:59;6.90;99.90
15160;DHT22;7680;48.800;9.680;2023-01-09T01:10:32;6.90;99.90
15160;DHT22;7680;48.800;9.680;2023-01-09T01:13:05;6.90;99.90
15160;DHT22;7680;48.800;9.680;2023-01-09T01:15:39;6.90;99.90
15160;DHT22;7680;48.800;9.680;2023-01-09T01:18:13;6.90;99.90
15160;DHT22;7680;48.800;9.680;2023-01-09T01:20:47;6.90;99.90
15160;DHT22;7680;48.800;9.680;2023-01-09T01:23:20;6.90;99.90
15160;DHT22;7680;48.800;9.680;2023-01-09T01:25:54;6.90;99.90
15160;DHT22;7680;48.800;9.680;2023-01-09T01:28:27;6.90;99.90
15160;DHT22;7680;48.800;9.680;2023-01-09T01:31:00;6.90;99.90
15160;DHT22;7680;48.800;9.680;2023-01-09T01:33:34;7.00;99.90
15160;DHT22;7680;48.800;9.680;2023-01-09T01:36:09;6.90;99.90
15160;DHT22;7680;48.800;9.680;2023-01-09T01:38:42;6.90;99.90
15160;DHT22;7680;48.800;9.680;2023-01-09T01:41:17;6.90;99.90
15160;DHT22;7680;48.800;9.680;2023-01-09T01:44:03;6.80;99.90
15160;DHT22;7680;48.800;9.680;2023-01-09T01:46:37;6.90;99.90
15160;DHT22;7680;48.800;9.680;2023-01-09T01:49:12;6.80;99.90
15160;DHT22;7680;48.800;9.680;2023-01-09T01:51:53;6.80;99.90
15160;DHT22;7680;48.800;9.680;2023-01-09T01:54:27;6.80;99.90
15160;DHT22;7680;48.800;9.680;2023-01-09T01:57:02;6.70;99.90
15160;DHT22;7680;48.800;9.680;2023-01-09T01:59:39;6.80;99.90
15160;DHT22;7680;48.800;9.680;2023-01-09T02:02:13;6.80;99.90
15160;DHT22;7680;48.800;9.680;2023-01-09T02:04:47;6.70;99.90
15160;DHT22;7680;48.800;9.680;2023-01-09T02:07:24;6.70;99.90
15160;DHT22;7680;48.800;9.680;2023-01-09T02:09:57;6.70;99.90
15160;DHT22;7680;48.800;9.680;2023-01-09T02:12:31;6.70;99.90
15160;DHT22;7680;48.800;9.680;2023-01-09T02:15:06;6.70;99.90
15160;DHT22;7680;48.800;9.680;2023-01-09T02:18:02;6.80;99.90
15160;DHT22;7680;48.800;9.680;2023-01-09T02:20:47;6.80;99.90
15160;DHT22;7680;48.800;9.680;2023-01-09T02:23:52;6.70;99.90
15160;DHT22;7680;48.800;9.680;2023-01-09T02:27:00;6.70;99.90
15160;DHT22;7680;48.800;9.680;2023-01-09T02:33:19;6.70;99.90
15160;DHT22;7680;48.800;9.680;2023-01-09T02:36:09;6.70;99.90
15160;DHT22;7680;48.800;9.680;2023-01-09T02:38:53;6.60;99.90
15160;DHT22;7680;48.800;9.680;2023-01-09T02:41:39;6.70;99.90
15160;DHT22;7680;48.800;9.680;2023-01-09T02:44:21;6.80;99.90
15160;DHT22;7680;48.800;9.680;2023-01-09T02:47:07;6.80;99.90
15160;DHT22;7680;48.800;9.680;2023-01-09T02:50:11;6.80;99.90
15160;DHT22;7680;48.800;9.680;2023-01-09T02:53:01;6.80;99.90
15160;DHT22;7680;48.800;9.680;2023-01-09T02:55:51;6.80;99.90
15160;DHT22;7680;48.800;9.680;2023-01-09T02:58:44;6.80;99.90
15160;DHT22;7680;48.800;9.680;2023-01-09T03:01:30;6.80;99.90
15160;DHT22;7680;48.800;9.680;2023-01-09T03:04:16;6.80;99.90
15160;DHT22;7680;48.800;9.680;2023-01-09T03:06:56;6.70;99.90
15160;DHT22;7680;48.800;9.680;2023-01-09T03:09:35;6.70;99.90
15160;DHT22;7680;48.800;9.680;2023-01-09T03:12:12;6.70;99.90
15160;DHT22;7680;48.800;9.680;2023-01-09T03:14:50;6.70;99.90
15160;DHT22;7680;48.800;9.680;2023-01-09T03:17:27;6.70;99.90
15160;DHT22;7680;48.800;9.680;2023-01-09T03:20:06;6.70;99.90
15160;DHT22;7680;48.800;9.680;2023-01-09T03:22:46;6.80;99.90
15160;DHT22;7680;48.800;9.680;2023-01-09T03:25:26;6.90;99.90
15160;DHT22;7680;48.800;9.680;2023-01-09T03:28:02;7.00;99.90
15160;DHT22;7680;48.800;9.680;2023-01-09T03:30:36;6.90;99.90
15160;DHT22;7680;48.800;9.680;2023-01-09T03:33:09;6.90;99.90
15160;DHT22;7680;48.800;9.680;2023-01-09T03:35:44;6.90;99.90
15160;DHT22;7680;48.800;9.680;2023-01-09T03:38:17;7.00;99.90
15160;DHT22;7680;48.800;9.680;2023-01-09T03:40:50;7.10;99.90
15160;DHT22;7680;48.800;9.680;2023-01-09T03:43:23;7.10;99.90
15160;DHT22;7680;48.800;9.680;2023-01-09T03:45:56;7.10;99.90
15160;DHT22;7680;48.800;9.680;2023-01-09T03:48:30;7.10;99.90
15160;DHT22;7680;48.800;9.680;2023-01-09T03:51:04;7.10;99.90
15160;DHT22;7680;48.800;9.680;2023-01-09T03:53:37;7.10;99.90
15160;DHT22;7680;48.800;9.680;2023-01-09T03:56:10;7.10;99.90
15160;DHT22;7680;48.800;9.680;2023-01-09T03:58:44;7.20;99.90
15160;DHT22;7680;48.800;9.680;2023-01-09T04:01:17;7.30;99.90
15160;DHT22;7680;48.800;9.680;2023-01-09T04:03:50;7.30;99.90
15160;DHT22;7680;48.800;9.680;2023-01-09T04:06:24;7.20;99.90
15160;DHT22;7680;48.800;9.680;2023-01-09T04:08:57;7.20;99.90
15160;DHT22;7680;48.800;9.680;2023-01-09T04:11:30;7.10;99.90
15160;DHT22;7680;48.800;9.680;2023-01-09T04:14:03;7.00;99.90
15160;DHT22;7680;48.800;9.680;2023-01-09T04:16:36;6.90;99.90
15160;DHT22;7680;48.800;9.680;2023-01-09T04:19:09;7.00;99.90
15160;DHT22;7680;48.800;9.680;2023-01-09T04:21:44;6.90;99.90
15160;DHT22;7680;48.800;9.680;2023-01-09T04:24:17;7.10;99.90
15160;DHT22;7680;48.800;9.680;2023-01-09T04:26:50;7.10;99.90
15160;DHT22;7680;48.800;9.680;2023-01-09T04:29:23;7.00;99.90
15160;DHT22;7680;48.800;9.680;2023-01-09T04:31:56;7.00;99.90
15160;DHT22;7680;48.800;9.680;2023-01-09T04:34:29;7.00;99.90
15160;DHT22;7680;48.800;9.680;2023-01-09T04:37:03;7.00;99.90
15160;DHT22;7680;48.800;9.680;2023-01-09T04:39:36;7.00;99.90
15160;DHT22;7680;48.800;9.680;2023-01-09T04:42:11;7.00;99.90
15160;DHT22;7680;48.800;9.680;2023-01-09T04:44:44;7.00;99.90
15160;DHT22;7680;48.800;9.680;2023-01-09T04:47:18;7.00;99.90
15160;DHT22;7680;48.800;9.680;2023-01-09T04:49:51;7.00;99.90
15160;DHT22;7680;48.800;9.680;2023-01-09T04:52:26;6.90;99.90
15160;DHT22;7680;48.800;9.680;2023-01-09T04:55:00;6.90;99.90
15160;DHT22;7680;48.800;9.680;2023-01-09T04:57:33;6.80;99.90
15160;DHT22;7680;48.800;9.680;2023-01-09T05:00:07;6.80;99.90
15160;DHT22;7680;48.800;9.680;2023-01-09T05:02:42;6.80;99.90
15160;DHT22;7680;48.800;9.680;2023-01-09T05:05:16;6.80;99.90
15160;DHT22;7680;48.800;9.680;2023-01-09T05:07:50;6.80;99.90
15160;DHT22;7680;48.800;9.680;2023-01-09T05:10:23;6.70;99.90
15160;DHT22;7680;48.800;9.680;2023-01-09T05:12:56;6.60;99.90
15160;DHT22;7680;48.800;9.680;2023-01-09T05:15:29;6.60;99.90
15160;DHT22;7680;48.800;9.680;2023-01-09T05:18:02;6.60;99.90
15160;DHT22;7680;48.800;9.680;2023-01-09T05:20:35;6.50;99.90
15160;DHT22;7680;48.800;9.680;2023-01-09T05:23:10;6.50;99.90
15160;DHT22;7680;48.800;9.680;2023-01-09T05:25:43;6.40;99.90
15160;DHT22;7680;48.800;9.680;2023-01-09T05:28:16;6.30;99.90
15160;DHT22;7680;48.800;9.680;2023-01-09T05:30:49;6.20;99.90
15160;DHT22;7680;48.800;9.680;2023-01-09T05:33:22;6.10;99.90
15160;DHT22;7680;48.800;9.680;2023-01-09T05:35:55;6.10;99.90
15160;DHT22;7680;48.800;9.680;2023-01-09T05:38:29;6.00;99.90
15160;DHT22;7680;48.800;9.680;2023-01-09T05:41:03;6.00;99.90
15160;DHT22;7680;48.800;9.680;2023-01-09T05:43:36;6.00;99.90
15160;DHT22;7680;48.800;9.680;2023-01-09T05:46:09;6.00;99.90
15160;DHT22;7680;48.800;9.680;2023-01-09T05:48:42;6.00;99.90
15160;DHT22;7680;48.800;9.680;2023-01-09T05:51:16;6.00;99.90
15160;DHT22;7680;48.800;9.680;2023-01-09T05:53:50;6.00;99.90
15160;DHT22;7680;48.800;9.680;2023-01-09T05:56:23;6.00;99.90
15160;DHT22;7680;48.800;9.680;2023-01-09T05:58:56;6.00;99.90
15160;DHT22;7680;48.800;9.680;2023-01-09T06:01:29;6.00;99.90
15160;DHT22;7680;48.800;9.680;2023-01-09T06:04:03;6.00;99.90
15160;DHT22;7680;48.800;9.680;2023-01-09T06:06:36;6.00;99.90
15160;DHT22;7680;48.800;9.680;2023-01-09T06:09:11;6.00;99.90
15160;DHT22;7680;48.800;9.680;2023-01-09T06:11:44;6.00;99.90
15160;DHT22;7680;48.800;9.680;2023-01-09T06:14:17;6.00;99.90
15160;DHT22;7680;48.800;9.680;2023-01-09T06:16:51;5.90;99.90
15160;DHT22;7680;48.800;9.680;2023-01-09T06:19:24;5.90;99.90
15160;DHT22;7680;48.800;9.680;2023-01-09T06:21:57;5.90;99.90
15160;DHT22;7680;48.800;9.680;2023-01-09T06:24:31;5.80;99.90
15160;DHT22;7680;48.800;9.680;2023-01-09T06:27:04;5.70;99.90
15160;DHT22;7680;48.800;9.680;2023-01-09T06:29:38;5.70;99.90
15160;DHT22;7680;48.800;9.680;2023-01-09T06:32:11;5.60;99.90
15160;DHT22;7680;48.800;9.680;2023-01-09T06:34:44;5.50;99.90
15160;DHT22;7680;48.800;9.680;2023-01-09T06:37:17;5.60;99.90
15160;DHT22;7680;48.800;9.680;2023-01-09T06:39:51;5.60;99.90
15160;DHT22;7680;48.800;9.680;2023-01-09T06:42:25;5.50;99.90
15160;DHT22;7680;48.800;9.680;2023-01-09T06:44:58;5.50;99.90
15160;DHT22;7680;48.800;9.680;2023-01-09T06:47:31;5.50;99.90
15160;DHT22;7680;48.800;9.680;2023-01-09T06:50:05;5.40;99.90
15160;DHT22;7680;48.800;9.680;2023-01-09T06:52:39;5.30;99.90
15160;DHT22;7680;48.800;9.680;2023-01-09T06:55:14;5.40;99.90
15160;DHT22;7680;48.800;9.680;2023-01-09T06:57:48;5.40;99.90
15160;DHT22;7680;48.800;9.680;2023-01-09T07:00:21;5.30;99.90
15160;DHT22;7680;48.800;9.680;2023-01-09T07:02:54;5.30;99.90
15160;DHT22;7680;48.800;9.680;2023-01-09T07:05:27;5.30;99.90
15160;DHT22;7680;48.800;9.680;2023-01-09T07:08:01;5.20;99.90
15160;DHT22;7680;48.800;9.680;2023-01-09T07:10:36;5.20;99.90
15160;DHT22;7680;48.800;9.680;2023-01-09T07:13:09;5.10;99.90
15160;DHT22;7680;48.800;9.680;2023-01-09T07:15:42;5.10;99.90
15160;DHT22;7680;48.800;9.680;2023-01-09T07:18:15;5.20;99.90
15160;DHT22;7680;48.800;9.680;2023-01-09T07:20:48;5.20;99.90
15160;DHT22;7680;48.800;9.680;2023-01-09T07:23:21;5.20;99.90
15160;DHT22;7680;48.800;9.680;2023-01-09T07:25:55;5.20;99.90
15160;DHT22;7680;48.800;9.680;2023-01-09T07:28:29;5.20;99.90
15160;DHT22;7680;48.800;9.680;2023-01-09T07:31:02;5.20;99.90
15160;DHT22;7680;48.800;9.680;2023-01-09T07:33:35;5.20;99.90
15160;DHT22;7680;48.800;9.680;2023-01-09T07:36:08;5.20;99.90
15160;DHT22;7680;48.800;9.680;2023-01-09T07:38:42;5.30;99.90
15160;DHT22;7680;48.800;9.680;2023-01-09T07:41:16;5.30;99.90
15160;DHT22;7680;48.800;9.680;2023-01-09T07:43:49;5.30;99.90
15160;DHT22;7680;48.800;9.680;2023-01-09T07:46:22;5.30;99.90
15160;DHT22;7680;48.800;9.680;2023-01-09T07:48:55;5.40;99.90
15160;DHT22;7680;48.800;9.680;2023-01-09T07:51:28;5.50;99.90
15160;DHT22;7680;48.800;9.680;2023-01-09T07:54:01;5.60;99.90
15160;DHT22;7680;48.800;9.680;2023-01-09T07:56:35;5.70;99.90
15160;DHT22;7680;48.800;9.680;2023-01-09T07:59:09;5.80;99.90
15160;DHT22;7680;48.800;9.680;2023-01-09T08:01:42;5.90;99.90
15160;DHT22;7680;48.800;9.680;2023-01-09T08:04:15;6.00;99.90
15160;DHT22;7680;48.800;9.680;2023-01-09T08:06:48;5.80;99.90
15160;DHT22;7680;48.800;9.680;2023-01-09T08:09:21;5.80;99.90
15160;DHT22;7680;48.800;9.680;2023-01-09T08:11:55;5.80;99.90
15160;DHT22;7680;48.800;9.680;2023-01-09T08:14:29;5.80;99.90
15160;DHT22;7680;48.800;9.680;2023-01-09T08:17:02;5.90;99.90
15160;DHT22;7680;48.800;9.680;2023-01-09T08:19:35;5.90;99.90
15160;DHT22;7680;48.800;9.680;2023-01-09T08:22:08;5.90;99.90
15160;DHT22;7680;48.800;9.680;2023-01-09T08:24:41;5.90;99.90
15160;DHT22;7680;48.800;9.680;2023-01-09T08:27:15;6.00;99.90
15160;DHT22;7680;48.800;9.680;2023-01-09T08:29:48;6.00;99.90
15160;DHT22;7680;48.800;9.680;2023-01-09T08:32:21;6.00;99.90
15160;DHT22;7680;48.800;9.680;2023-01-09T08:34:54;6.00;99.90
15160;DHT22;7680;48.800;9.680;2023-01-09T08:37:28;6.10;99.90
15160;DHT22;7680;48.800;9.680;2023-01-09T08:40:01;6.00;99.90
15160;DHT22;7680;48.800;9.680;2023-01-09T08:42:35;6.00;99.90
15160;DHT22;7680;48.800;9.680;2023-01-09T08:45:26;5.90;99.90
15160;DHT22;7680;48.800;9.680;2023-01-09T08:48:16;5.90;99.90
15160;DHT22;7680;48.800;9.680;2023-01-09T08:50:49;5.90;99.90
15160;DHT22;7680;48.800;9.680;2023-01-09T08:53:24;5.90;99.90
15160;DHT22;7680;48.800;9.680;2023-01-09T08:55:57;6.00;99.90
15160;DHT22;7680;48.800;9.680;2023-01-09T08:58:32;6.00;99.90
15160;DHT22;7680;48.800;9.680;2023-01-09T09:01:06;6.00;99.90
15160;DHT22;7680;48.800;9.680;2023-01-09T09:03:39;6.00;99.90
15160;DHT22;7680;48.800;9.680;2023-01-09T09:06:12;6.00;99.90
15160;DHT22;7680;48.800;9.680;2023-01-09T09:08:45;6.00;99.90
15160;DHT22;7680;48.800;9.680;2023-01-09T09:11:18;6.00;99.90
15160;DHT22;7680;48.800;9.680;2023-01-09T09:13:52;6.00;99.90
15160;DHT22;7680;48.800;9.680;2023-01-09T09:16:26;6.10;99.90
15160;DHT22;7680;48.800;9.680;2023-01-09T09:18:59;6.10;99.90
15160;DHT22;7680;48.800;9.680;2023-01-09T09:21:32;6.10;99.90
15160;DHT22;7680;48.800;9.680;2023-01-09T09:24:05;6.10;99.90
15160;DHT22;7680;48.800;9.680;2023-01-09T09:26:38;6.00;99.90
15160;DHT22;7680;48.800;9.680;2023-01-09T09:29:15;6.10;99.90
15160;DHT22;7680;48.800;9.680;2023-01-09T09:31:48;6.20;99.90
15160;DHT22;7680;48.800;9.680;2023-01-09T09:34:21;6.40;99.90
15160;DHT22;7680;48.800;9.680;2023-01-09T09:36:55;6.70;99.90
15160;DHT22;7680;48.800;9.680;2023-01-09T09:39:28;6.80;99.90
15160;DHT22;7680;48.800;9.680;2023-01-09T09:42:29;6.90;99.90
15160;DHT22;7680;48.800;9.680;2023-01-09T09:45:33;7.10;99.90
15160;DHT22;7680;48.800;9.680;2023-01-09T09:48:21;7.10;99.90
15160;DHT22;7680;48.800;9.680;2023-01-09T09:51:20;7.20;99.90
15160;DHT22;7680;48.800;9.680;2023-01-09T09:53:59;7.20;99.90
15160;DHT22;7680;48.800;9.680;2023-01-09T09:56:42;7.40;99.90
15160;DHT22;7680;48.800;9.680;2023-01-09T09:59:21;7.50;99.90
15160;DHT22;7680;48.800;9.680;2023-01-09T10:02:02;7.60;99.90
15160;DHT22;7680;48.800;9.680;2023-01-09T10:04:41;7.70;99.90
15160;DHT22;7680;48.800;9.680;2023-01-09T10:07:21;7.70;99.90
15160;DHT22;7680;48.800;9.680;2023-01-09T10:09:59;7.60;99.90
15160;DHT22;7680;48.800;9.680;2023-01-09T10:12:41;7.80;99.90
15160;DHT22;7680;48.800;9.680;2023-01-09T10:15:18;7.80;99.90
15160;DHT22;7680;48.800;9.680;2023-01-09T10:18:08;7.80;99.90
15160;DHT22;7680;48.800;9.680;2023-01-09T10:20:56;7.70;99.90
15160;DHT22;7680;48.800;9.680;2023-01-09T10:26:46;7.60;99.90
15160;DHT22;7680;48.800;9.680;2023-01-09T10:29:38;7.60;99.90
15160;DHT22;7680;48.800;9.680;2023-01-09T10:32:46;7.70;99.90
15160;DHT22;7680;48.800;9.680;2023-01-09T10:35:45;7.70;99.90
15160;DHT22;7680;48.800;9.680;2023-01-09T10:38:25;7.80;99.90
15160;DHT22;7680;48.800;9.680;2023-01-09T10:41:06;7.70;99.90
15160;DHT22;7680;48.800;9.680;2023-01-09T10:43:45;7.80;99.90
15160;DHT22;7680;48.800;9.680;2023-01-09T10:46:24;7.80;99.90
15160;DHT22;7680;48.800;9.680;2023-01-09T10:49:01;7.80;99.90
15160;DHT22;7680;48.800;9.680;2023-01-09T10:51:45;7.90;99.90
15160;DHT22;7680;48.800;9.680;2023-01-09T10:54:21;8.00;99.90
15160;DHT22;7680;48.800;9.680;2023-01-09T10:56:57;8.10;99.90
15160;DHT22;7680;48.800;9.680;2023-01-09T10:59:32;8.10;99.90
15160;DHT22;7680;48.800;9.680;2023-01-09T11:02:22;8.20;99.90
15160;DHT22;7680;48.800;9.680;2023-01-09T11:04:58;8.10;99.90
15160;DHT22;7680;48.800;9.680;2023-01-09T11:07:36;8.00;99.90
15160;DHT22;7680;48.800;9.680;2023-01-09T11:10:11;8.10;99.90
15160;DHT22;7680;48.800;9.680;2023-01-09T11:12:46;8.00;99.90
15160;DHT22;7680;48.800;9.680;2023-01-09T11:15:27;8.00;99.90
15160;DHT22;7680;48.800;9.680;2023-01-09T11:18:20;8.10;99.90
15160;DHT22;7680;48.800;9.680;2023-01-09T11:20:55;8.10;99.90
15160;DHT22;7680;48.800;9.680;2023-01-09T11:23:45;8.20;99.90
15160;DHT22;7680;48.800;9.680;2023-01-09T11:26:22;8.30;99.90
15160;DHT22;7680;48.800;9.680;2023-01-09T11:29:06;8.50;99.90
15160;DHT22;7680;48.800;9.680;2023-01-09T11:31:50;8.60;99.90
15160;DHT22;7680;48.800;9.680;2023-01-09T11:34:25;8.70;99.90
15160;DHT22;7680;48.800;9.680;2023-01-09T11:37:02;8.80;99.90
15160;DHT22;7680;48.800;9.680;2023-01-09T11:39:44;8.90;99.90
15160;DHT22;7680;48.800;9.680;2023-01-09T11:42:20;8.80;99.90
15160;DHT22;7680;48.800;9.680;2023-01-09T11:45:15;8.70;99.90
15160;DHT22;7680;48.800;9.680;2023-01-09T11:47:49;8.60;99.90
15160;DHT22;7680;48.800;9.680;2023-01-09T11:50:24;8.50;99.90
15160;DHT22;7680;48.800;9.680;2023-01-09T11:53:12;8.50;99.90
15160;DHT22;7680;48.800;9.680;2023-01-09T11:55:55;8.50;99.90
15160;DHT22;7680;48.800;9.680;2023-01-09T11:58:33;8.30;99.90
15160;DHT22;7680;48.800;9.680;2023-01-09T12:01:17;8.50;99.90
15160;DHT22;7680;48.800;9.680;2023-01-09T12:04:07;8.70;99.90
15160;DHT22;7680;48.800;9.680;2023-01-09T12:06:57;8.70;99.90
15160;DHT22;7680;48.800;9.680;2023-01-09T12:09:42;8.70;99.90
15160;DHT22;7680;48.800;9.680;2023-01-09T12:12:25;8.70;99.90
15160;DHT22;7680;48.800;9.680;2023-01-09T12:15:17;8.80;99.90
15160;DHT22;7680;48.800;9.680;2023-01-09T12:18:08;8.70;99.90
15160;DHT22;7680;48.800;9.680;2023-01-09T12:20:54;8.60;99.90
15160;DHT22;7680;48.800;9.680;2023-01-09T12:23:52;8.70;99.90
15160;DHT22;7680;48.800;9.680;2023-01-09T12:26:35;8.80;99.90
15160;DHT22;7680;48.800;9.680;2023-01-09T12:29:51;8.60;99.90
15160;DHT22;7680;48.800;9.680;2023-01-09T12:32:42;8.60;99.90
15160;DHT22;7680;48.800;9.680;2023-01-09T12:35:30;8.50;99.90
15160;DHT22;7680;48.800;9.680;2023-01-09T12:38:18;8.50;99.90
15160;DHT22;7680;48.800;9.680;2023-01-09T12:41:16;8.40;99.90
15160;DHT22;7680;48.800;9.680;2023-01-09T12:44:14;8.60;99.90
15160;DHT22;7680;48.800;9.680;2023-01-09T12:47:19;8.60;99.90
15160;DHT22;7680;48.800;9.680;2023-01-09T12:50:08;8.40;99.90
15160;DHT22;7680;48.800;9.680;2023-01-09T12:53:08;8.40;99.90
15160;DHT22;7680;48.800;9.680;2023-01-09T12:55:49;8.50;99.90
15160;DHT22;7680;48.800;9.680;2023-01-09T12:58:31;8.50;99.90
15160;DHT22;7680;48.800;9.680;2023-01-09T13:01:13;8.50;99.90
15160;DHT22;7680;48.800;9.680;2023-01-09T13:03:52;8.50;99.90
15160;DHT22;7680;48.800;9.680;2023-01-09T13:06:32;8.40;99.90
15160;DHT22;7680;48.800;9.680;2023-01-09T13:09:17;8.40;99.90
15160;DHT22;7680;48.800;9.680;2023-01-09T13:12:01;8.50;99.90
15160;DHT22;7680;48.800;9.680;2023-01-09T13:14:46;8.60;99.90
15160;DHT22;7680;48.800;9.680;2023-01-09T13:17:25;8.40;99.90
15160;DHT22;7680;48.800;9.680;2023-01-09T13:20:07;8.70;99.90
15160;DHT22;7680;48.800;9.680;2023-01-09T13:22:50;8.60;99.90
15160;DHT22;7680;48.800;9.680;2023-01-09T13:25:34;8.60;99.90
15160;DHT22;7680;48.800;9.680;2023-01-09T13:28:15;8.80;99.90
15160;DHT22;7680;48.800;9.680;2023-01-09T13:34:11;8.80;99.90
15160;DHT22;7680;48.800;9.680;2023-01-09T13:36:55;8.70;99.90
15160;DHT22;7680;48.800;9.680;2023-01-09T13:39:30;8.30;99.90
15160;DHT22;7680;48.800;9.680;2023-01-09T13:42:05;8.10;99.90
15160;DHT22;7680;48.800;9.680;2023-01-09T13:45:18;8.20;99.90
15160;DHT22;7680;48.800;9.680;2023-01-09T13:58:23;7.90;99.90
15160;DHT22;7680;48.800;9.680;2023-01-09T14:00:59;7.90;99.90
15160;DHT22;7680;48.800;9.680;2023-01-09T14:03:35;7.90;99.90
15160;DHT22;7680;48.800;9.680;2023-01-09T14:06:16;7.80;99.90
15160;DHT22;7680;48.800;9.680;2023-01-09T14:09:11;7.70;99.90
15160;DHT22;7680;48.800;9.680;2023-01-09T14:12:01;7.60;99.90
15160;DHT22;7680;48.800;9.680;2023-01-09T14:14:35;7.20;99.90
15160;DHT22;7680;48.800;9.680;2023-01-09T14:17:15;7.10;99.90
15160;DHT22;7680;48.800;9.680;2023-01-09T14:19:54;7.00;99.90
15160;DHT22;7680;48.800;9.680;2023-01-09T14:22:30;6.90;99.90
15160;DHT22;7680;48.800;9.680;2023-01-09T14:25:29;6.90;99.90
15160;DHT22;7680;48.800;9.680;2023-01-09T14:28:18;6.90;99.90
15160;DHT22;7680;48.800;9.680;2023-01-09T14:31:05;7.00;99.90
15160;DHT22;7680;48.800;9.680;2023-01-09T14:33:39;7.10;99.90
15160;DHT22;7680;48.800;9.680;2023-01-09T14:36:14;7.10;99.90
15160;DHT22;7680;48.800;9.680;2023-01-09T14:38:51;7.10;99.90
15160;DHT22;7680;48.800;9.680;2023-01-09T14:41:31;7.10;99.90
15160;DHT22;7680;48.800;9.680;2023-01-09T14:44:27;7.20;99.90
15160;DHT22;7680;48.800;9.680;2023-01-09T14:47:09;7.20;99.90
15160;DHT22;7680;48.800;9.680;2023-01-09T14:49:50;7.20;99.90
15160;DHT22;7680;48.800;9.680;2023-01-09T14:52:29;7.30;99.90
15160;DHT22;7680;48.800;9.680;2023-01-09T14:55:05;7.30;99.90
15160;DHT22;7680;48.800;9.680;2023-01-09T14:57:50;7.40;99.90
15160;DHT22;7680;48.800;9.680;2023-01-09T15:00:25;7.40;99.90
15160;DHT22;7680;48.800;9.680;2023-01-09T15:03:00;7.30;99.90
15160;DHT22;7680;48.800;9.680;2023-01-09T15:05:35;7.10;99.90
15160;DHT22;7680;48.800;9.680;2023-01-09T15:08:13;6.70;99.90
15160;DHT22;7680;48.800;9.680;2023-01-09T15:10:50;6.60;99.90
15160;DHT22;7680;48.800;9.680;2023-01-09T15:13:31;6.50;99.90
15160;DHT22;7680;48.800;9.680;2023-01-09T15:16:16;6.50;99.90
15160;DHT22;7680;48.800;9.680;2023-01-09T15:18:53;6.40;99.90
15160;DHT22;7680;48.800;9.680;2023-01-09T15:21:29;6.50;99.90
15160;DHT22;7680;48.800;9.680;2023-01-09T15:24:11;6.50;99.90
15160;DHT22;7680;48.800;9.680;2023-01-09T15:26:51;6.50;99.90
15160;DHT22;7680;48.800;9.680;2023-01-09T15:29:27;6.60;99.90
15160;DHT22;7680;48.800;9.680;2023-01-09T15:32:03;6.60;99.90
15160;DHT22;7680;48.800;9.680;2023-01-09T15:34:38;6.60;99.90
15160;DHT22;7680;48.800;9.680;2023-01-09T15:37:26;6.60;99.90
15160;DHT22;7680;48.800;9.680;2023-01-09T15:40:03;6.50;99.90
15160;DHT22;7680;48.800;9.680;2023-01-09T15:42:38;6.50;99.90
15160;DHT22;7680;48.800;9.680;2023-01-09T15:45:32;6.50;99.90
15160;DHT22;7680;48.800;9.680;2023-01-09T15:48:20;6.40;99.90
15160;DHT22;7680;48.800;9.680;2023-01-09T15:50:56;6.40;99.90
15160;DHT22;7680;48.800;9.680;2023-01-09T15:53:30;6.40;99.90
15160;DHT22;7680;48.800;9.680;2023-01-09T15:56:11;6.40;99.90
15160;DHT22;7680;48.800;9.680;2023-01-09T15:58:48;6.40;99.90
15160;DHT22;7680;48.800;9.680;2023-01-09T16:01:29;6.40;99.90
15160;DHT22;7680;48.800;9.680;2023-01-09T16:04:05;6.40;99.90
15160;DHT22;7680;48.800;9.680;2023-01-09T16:06:41;6.30;99.90
15160;DHT22;7680;48.800;9.680;2023-01-09T16:09:21;6.30;99.90
15160;DHT22;7680;48.800;9.680;2023-01-09T16:11:59;6.30;99.90
15160;DHT22;7680;48.800;9.680;2023-01-09T16:14:35;6.20;99.90
15160;DHT22;7680;48.800;9.680;2023-01-09T16:17:15;6.20;99.90
15160;DHT22;7680;48.800;9.680;2023-01-09T16:19:50;6.20;99.90
15160;DHT22;7680;48.800;9.680;2023-01-09T16:22:25;6.30;99.90
15160;DHT22;7680;48.800;9.680;2023-01-09T16:25:01;6.30;99.90
15160;DHT22;7680;48.800;9.680;2023-01-09T16:28:07;6.20;99.90
15160;DHT22;7680;48.800;9.680;2023-01-09T16:30:51;6.30;99.90
15160;DHT22;7680;48.800;9.680;2023-01-09T16:33:28;6.20;99.90
15160;DHT22;7680;48.800;9.680;2023-01-09T16:36:03;6.20;99.90
15160;DHT22;7680;48.800;9.680;2023-01-09T16:38:36;6.20;99.90
15160;DHT22;7680;48.800;9.680;2023-01-09T16:41:13;6.10;99.90
15160;DHT22;7680;48.800;9.680;2023-01-09T16:44:04;6.00;99.90
15160;DHT22;7680;48.800;9.680;2023-01-09T16:46:41;5.90;99.90
15160;DHT22;7680;48.800;9.680;2023-01-09T16:49:18;5.90;99.90
15160;DHT22;7680;48.800;9.680;2023-01-09T16:51:54;5.70;99.90
15160;DHT22;7680;48.800;9.680;2023-01-09T16:54:27;5.60;99.90
15160;DHT22;7680;48.800;9.680;2023-01-09T16:57:02;5.60;99.90
15160;DHT22;7680;48.800;9.680;2023-01-09T16:59:35;5.50;99.90
15160;DHT22;7680;48.800;9.680;2023-01-09T17:02:15;5.40;99.90
15160;DHT22;7680;48.800;9.680;2023-01-09T17:04:50;5.30;99.90
15160;DHT22;7680;48.800;9.680;2023-01-09T17:07:25;5.30;99.90
15160;DHT22;7680;48.800;9.680;2023-01-09T17:10:01;5.20;99.90
15160;DHT22;7680;48.800;9.680;2023-01-09T17:12:35;5.10;99.90
15160;DHT22;7680;48.800;9.680;2023-01-09T17:15:09;5.10;99.90
15160;DHT22;7680;48.800;9.680;2023-01-09T17:17:42;5.00;99.90
15160;DHT22;7680;48.800;9.680;2023-01-09T17:20:18;5.00;99.90
15160;DHT22;7680;48.800;9.680;2023-01-09T17:22:52;4.90;99.90
15160;DHT22;7680;48.800;9.680;2023-01-09T17:25:25;4.90;99.90
15160;DHT22;7680;48.800;9.680;2023-01-09T17:28:17;4.80;99.90
15160;DHT22;7680;48.800;9.680;2023-01-09T17:31:09;4.80;99.90
15160;DHT22;7680;48.800;9.680;2023-01-09T17:33:43;4.80;99.90